Time,TemperatureF,DewpointF,PressureIn,WindDirection,WindDirectionDegrees,WindSpeedMPH,WindSpeedGustMPH,Humidity,HourlyPrecipIn,Conditions,Clouds,dailyrainin,SoftwareType,DateUTC
2013-05-25 00:03:00,67.8,67.5,30.16,South,180,0.0,1.0,99,0.00,,,0.00,meteohub,2013-05-25 05:03:00,
2013-05-25 00:08:00,67.8,67.5,30.16,NE,45,0.0,1.0,99,0.00,,,0.00,meteohub,2013-05-25 05:08:00,
2013-05-25 00:14:00,67.8,67.5,30.16,NE,45,0.0,0.0,99,0.00,,,0.00,meteohub,2013-05-25 05:14:00,
2013-05-25 00:19:00,68.0,67.6,30.16,NE,45,0.0,0.0,99,0.00,,,0.00,meteohub,2013-05-25 05:19:00,
2013-05-25 00:24:00,68.0,67.6,30.16,NE,45,0.0,0.0,99,0.00,,,0.00,meteohub,2013-05-25 05:24:00,
2013-05-25 00:29:00,68.0,67.6,30.16,NE,45,0.0,0.0,99,0.00,,,0.00,meteohub,2013-05-25 05:29:00,
2013-05-25 00:34:00,68.0,67.6,30.16,NE,45,2.0,0.0,99,0.00,,,0.00,meteohub,2013-05-25 05:34:00,
2013-05-25 00:39:00,68.0,67.6,30.16,East,90,2.0,2.0,99,0.00,,,0.00,meteohub,2013-05-25 05:39:00,
2013-05-25 00:44:00,68.0,67.6,30.16,ENE,68,2.0,2.0,99,0.00,,,0.00,meteohub,2013-05-25 05:44:00,
2013-05-25 00:49:00,68.0,67.6,30.16,ENE,68,1.0,2.0,99,0.00,,,0.00,meteohub,2013-05-25 05:49:00,
2013-05-25 00:55:00,68.0,67.6,30.16,East,90,1.0,2.0,99,0.00,,,0.00,meteohub,2013-05-25 05:55:00,
2013-05-25 01:00:00,67.8,67.5,30.15,North,0,0.0,2.0,99,0.00,,,0.00,meteohub,2013-05-25 06:00:00,
2013-05-25 01:05:00,67.8,67.5,30.15,North,0,0.0,2.0,99,0.00,,,0.00,meteohub,2013-05-25 06:05:00,
2013-05-25 01:10:00,68.0,67.6,30.14,West,270,0.0,2.0,99,0.00,,,0.00,meteohub,2013-05-25 06:10:00,
2013-05-25 01:15:00,68.0,67.6,30.14,West,270,1.0,1.0,99,0.00,,,0.00,meteohub,2013-05-25 06:15:00,
2013-05-25 01:20:00,68.0,67.6,30.15,West,270,0.0,1.0,99,0.00,,,0.00,meteohub,2013-05-25 06:20:00,
2013-05-25 01:25:00,67.8,67.5,30.15,West,270,0.0,1.0,99,0.00,,,0.00,meteohub,2013-05-25 06:25:00,
2013-05-25 01:30:00,68.0,67.6,30.15,West,270,0.0,1.0,99,0.00,,,0.00,meteohub,2013-05-25 06:30:00,
2013-05-25 01:35:00,68.0,67.6,30.15,West,270,0.0,0.0,99,0.00,,,0.00,meteohub,2013-05-25 06:35:00,
2013-05-25 01:41:00,68.0,67.6,30.15,SE,135,0.0,0.0,99,0.00,,,0.00,meteohub,2013-05-25 06:41:00,
2013-05-25 01:46:00,68.0,67.6,30.16,SE,135,0.0,0.0,99,0.00,,,0.00,meteohub,2013-05-25 06:46:00,
2013-05-25 01:51:00,68.0,67.6,30.16,SE,135,0.0,0.0,99,0.00,,,0.00,meteohub,2013-05-25 06:51:00,
2013-05-25 01:56:00,68.0,67.6,30.15,East,90,2.0,0.0,99,0.00,,,0.00,meteohub,2013-05-25 06:56:00,
2013-05-25 02:01:00,68.2,67.8,30.16,East,90,0.0,2.0,99,0.00,,,0.00,meteohub,2013-05-25 07:01:00,
2013-05-25 02:06:00,68.2,67.8,30.15,East,90,0.0,2.0,99,0.00,,,0.00,meteohub,2013-05-25 07:06:00,
2013-05-25 02:11:00,68.4,68.0,30.15,NE,45,0.0,2.0,99,0.00,,,0.00,meteohub,2013-05-25 07:11:00,
2013-05-25 02:16:00,68.4,68.0,30.15,North,0,0.0,0.0,99,0.00,,,0.00,meteohub,2013-05-25 07:16:00,
2013-05-25 02:21:00,68.4,68.0,30.14,North,0,0.0,0.0,99,0.00,,,0.00,meteohub,2013-05-25 07:21:00,
2013-05-25 02:26:00,68.5,68.2,30.15,SE,135,0.0,0.0,99,0.00,,,0.00,meteohub,2013-05-25 07:26:00,
2013-05-25 02:32:00,68.5,68.2,30.14,NE,45,1.0,0.0,99,0.00,,,0.00,meteohub,2013-05-25 07:32:00,
2013-05-25 02:37:00,68.5,68.2,30.14,North,0,0.0,2.0,99,0.00,,,0.00,meteohub,2013-05-25 07:37:00,
2013-05-25 02:42:00,68.5,68.2,30.14,East,90,0.0,2.0,99,0.00,,,0.00,meteohub,2013-05-25 07:42:00,
2013-05-25 02:47:00,68.5,68.2,30.14,West,270,0.0,2.0,99,0.00,,,0.00,meteohub,2013-05-25 07:47:00,
2013-05-25 02:52:00,68.5,68.2,30.13,North,0,0.0,1.0,99,0.00,,,0.00,meteohub,2013-05-25 07:52:00,
2013-05-25 02:57:00,68.5,68.2,30.13,East,90,0.0,2.0,99,0.00,,,0.00,meteohub,2013-05-25 07:57:00,
2013-05-25 03:02:00,68.7,68.4,30.13,West,270,1.0,2.0,99,0.00,,,0.00,meteohub,2013-05-25 08:02:00,
2013-05-25 03:07:00,68.7,68.4,30.13,NE,45,2.0,2.0,99,0.00,,,0.00,meteohub,2013-05-25 08:07:00,
2013-05-25 03:12:00,68.7,68.4,30.13,East,90,1.0,2.0,99,0.00,,,0.00,meteohub,2013-05-25 08:12:00,
2013-05-25 03:18:00,68.7,68.4,30.12,NW,315,0.0,2.0,99,0.00,,,0.00,meteohub,2013-05-25 08:18:00,
2013-05-25 03:26:00,68.9,68.5,30.12,North,0,0.0,2.0,99,0.00,,,0.00,meteohub,2013-05-25 08:26:00,
2013-05-25 03:32:00,68.9,68.5,30.12,East,90,1.0,2.0,99,0.00,,,0.00,meteohub,2013-05-25 08:32:00,
2013-05-25 03:37:00,68.9,68.5,30.12,SW,225,1.0,2.0,99,0.00,,,0.00,meteohub,2013-05-25 08:37:00,
2013-05-25 03:42:00,68.9,68.5,30.12,NE,45,0.0,2.0,99,0.00,,,0.00,meteohub,2013-05-25 08:42:00,
2013-05-25 03:47:00,68.9,68.5,30.12,South,180,1.0,1.0,99,0.00,,,0.00,meteohub,2013-05-25 08:47:00,
2013-05-25 03:54:00,69.1,68.7,30.12,South,180,0.0,1.0,99,0.00,,,0.00,meteohub,2013-05-25 08:54:00,
2013-05-25 04:00:00,69.1,68.7,30.12,NE,45,1.0,1.0,99,0.00,,,0.00,meteohub,2013-05-25 09:00:00,
2013-05-25 04:06:00,69.1,68.7,30.12,NE,45,0.0,1.0,99,0.00,,,0.00,meteohub,2013-05-25 09:06:00,
2013-05-25 04:12:00,69.3,68.9,30.12,NE,45,0.0,2.0,99,0.00,,,0.00,meteohub,2013-05-25 09:12:00,
2013-05-25 04:17:00,69.3,68.9,30.12,North,0,0.0,2.0,99,0.00,,,0.00,meteohub,2013-05-25 09:17:00,
2013-05-25 04:23:00,69.3,68.9,30.12,South,180,0.0,2.0,99,0.00,,,0.00,meteohub,2013-05-25 09:23:00,
2013-05-25 04:28:00,69.3,68.9,30.12,NE,45,1.0,2.0,99,0.00,,,0.00,meteohub,2013-05-25 09:28:00,
2013-05-25 04:35:00,69.4,69.1,30.12,NE,45,1.0,2.0,99,0.00,,,0.00,meteohub,2013-05-25 09:35:00,
2013-05-25 04:42:00,69.6,69.3,30.11,North,0,1.0,2.0,99,0.00,,,0.00,meteohub,2013-05-25 09:42:00,
2013-05-25 04:47:00,69.8,69.3,30.11,NE,45,1.0,2.0,98,0.00,,,0.00,meteohub,2013-05-25 09:47:00,
2013-05-25 04:53:00,69.8,69.3,30.11,NE,45,0.0,2.0,98,0.00,,,0.00,meteohub,2013-05-25 09:53:00,
2013-05-25 04:59:00,70.0,69.4,30.11,North,0,0.0,1.0,98,0.00,,,0.00,meteohub,2013-05-25 09:59:00,
2013-05-25 05:05:00,70.0,69.4,30.11,East,90,1.0,2.0,98,0.00,,,0.00,meteohub,2013-05-25 10:05:00,
2013-05-25 05:11:00,70.0,69.4,30.11,NW,315,1.0,2.0,98,0.00,,,0.00,meteohub,2013-05-25 10:11:00,
2013-05-25 05:18:00,70.2,69.6,30.11,NE,45,0.0,2.0,98,0.00,,,0.00,meteohub,2013-05-25 10:18:00,
2013-05-25 05:23:00,70.2,69.6,30.11,NE,45,0.0,2.0,98,0.00,,,0.00,meteohub,2013-05-25 10:23:00,
2013-05-25 05:29:00,70.3,69.8,30.11,SW,225,0.0,2.0,98,0.00,,,0.00,meteohub,2013-05-25 10:29:00,
2013-05-25 05:34:00,70.3,69.8,30.12,SW,225,0.0,2.0,98,0.00,,,0.00,meteohub,2013-05-25 10:34:00,
2013-05-25 05:37:00,70.3,69.8,30.12,East,90,0.0,2.0,98,0.00,,,0.00,meteohub,2013-05-25 10:37:00,
2013-05-25 05:39:00,70.3,69.8,30.11,East,90,0.0,2.0,98,0.00,,,0.00,meteohub,2013-05-25 10:39:00,
2013-05-25 05:45:00,70.3,69.8,30.11,East,90,0.0,0.0,98,0.00,,,0.00,meteohub,2013-05-25 10:45:00,
2013-05-25 05:51:00,70.5,70.0,30.11,East,90,0.0,0.0,98,0.00,,,0.00,meteohub,2013-05-25 10:51:00,
2013-05-25 05:56:00,70.5,70.0,30.11,East,90,0.0,0.0,98,0.00,,,0.00,meteohub,2013-05-25 10:56:00,
2013-05-25 06:02:00,70.5,70.0,30.12,East,90,0.0,0.0,98,0.00,,,0.00,meteohub,2013-05-25 11:02:00,
2013-05-25 06:08:00,70.5,70.0,30.12,East,90,0.0,0.0,98,0.00,,,0.00,meteohub,2013-05-25 11:08:00,
2013-05-25 06:16:00,70.5,70.0,30.12,East,90,0.0,0.0,98,0.00,,,0.00,meteohub,2013-05-25 11:16:00,
2013-05-25 06:22:00,70.5,70.0,30.13,East,90,0.0,0.0,98,0.00,,,0.00,meteohub,2013-05-25 11:22:00,
2013-05-25 06:27:00,70.7,70.2,30.12,East,90,0.0,0.0,98,0.00,,,0.00,meteohub,2013-05-25 11:27:00,
2013-05-25 06:32:00,70.7,70.2,30.12,East,90,0.0,0.0,98,0.00,,,0.00,meteohub,2013-05-25 11:32:00,
2013-05-25 06:37:00,70.7,70.2,30.12,East,90,0.0,0.0,98,0.00,,,0.00,meteohub,2013-05-25 11:37:00,
2013-05-25 06:43:00,70.7,70.2,30.12,East,90,0.0,0.0,98,0.00,,,0.00,meteohub,2013-05-25 11:43:00,
2013-05-25 06:48:00,70.7,70.2,30.12,NE,45,0.0,0.0,98,0.00,,,0.00,meteohub,2013-05-25 11:48:00,
2013-05-25 06:53:00,70.7,70.2,30.12,NE,45,2.0,0.0,98,0.00,,,0.00,meteohub,2013-05-25 11:53:00,
2013-05-25 06:58:00,70.7,70.2,30.12,East,90,1.0,0.0,98,0.00,,,0.00,meteohub,2013-05-25 11:58:00,
2013-05-25 07:03:00,70.7,70.2,30.13,East,90,2.0,2.0,98,0.00,,,0.00,meteohub,2013-05-25 12:03:00,
2013-05-25 07:08:00,70.7,70.2,30.13,NE,45,0.0,2.0,98,0.00,,,0.00,meteohub,2013-05-25 12:08:00,
2013-05-25 07:17:00,70.7,70.2,30.14,NE,45,2.0,2.0,98,0.00,,,0.00,meteohub,2013-05-25 12:17:00,
2013-05-25 07:28:00,70.7,70.2,30.14,NE,45,1.0,3.0,98,0.00,,,0.00,meteohub,2013-05-25 12:28:00,
2013-05-25 07:33:00,69.8,69.3,30.16,NE,45,11.0,11.0,98,0.00,,,0.00,meteohub,2013-05-25 12:33:00,
2013-05-25 07:38:00,68.9,68.5,30.15,West,270,3.0,11.0,99,0.00,,,0.00,meteohub,2013-05-25 12:38:00,
2013-05-25 11:00:00,73.0,72.1,30.17,NE,45,3.0,4.0,97,0.00,,,0.00,meteohub,2013-05-25 16:00:00,
2013-05-25 11:05:00,73.2,72.3,30.17,ENE,68,3.0,4.0,97,0.00,,,0.00,meteohub,2013-05-25 16:05:00,
2013-05-25 11:10:00,73.9,73.6,30.17,NE,45,2.0,4.0,99,0.00,,,0.00,meteohub,2013-05-25 16:10:00,
2013-05-25 11:15:00,73.9,73.6,30.17,East,90,3.0,3.0,99,0.00,,,0.00,meteohub,2013-05-25 16:15:00,
2013-05-25 11:20:00,73.8,73.4,30.17,East,90,2.0,3.0,99,0.00,,,0.00,meteohub,2013-05-25 16:20:00,
2013-05-25 11:25:00,72.0,71.1,30.17,NW,315,8.0,8.0,97,0.00,,,0.00,meteohub,2013-05-25 16:25:00,
2013-05-25 11:30:00,69.4,69.1,30.17,ENE,68,8.0,15.0,99,0.00,,,0.00,meteohub,2013-05-25 16:30:00,
2013-05-25 11:35:00,68.7,68.4,30.17,East,90,11.0,15.0,99,0.00,,,0.00,meteohub,2013-05-25 16:35:00,
2013-05-25 11:40:00,68.7,68.4,30.17,East,90,8.0,18.0,99,0.00,,,0.00,meteohub,2013-05-25 16:40:00,
2013-05-25 11:45:00,69.1,68.5,30.17,ENE,68,9.0,18.0,98,0.00,,,0.00,meteohub,2013-05-25 16:45:00,
2013-05-25 11:50:00,69.8,68.9,30.17,SE,135,6.0,18.0,97,0.00,,,0.00,meteohub,2013-05-25 16:50:00,
2013-05-25 11:56:00,70.5,69.3,30.17,NNE,23,6.0,13.0,96,0.00,,,0.00,meteohub,2013-05-25 16:56:00,
2013-05-25 12:01:00,71.1,69.8,30.17,East,90,8.0,11.0,96,0.00,,,0.00,meteohub,2013-05-25 17:01:00,
2013-05-25 12:06:00,71.8,70.3,30.17,ENE,68,8.0,11.0,95,0.00,,,0.00,meteohub,2013-05-25 17:06:00,
2013-05-25 12:11:00,72.3,70.2,30.17,NE,45,4.0,11.0,93,0.00,,,0.00,meteohub,2013-05-25 17:11:00,
2013-05-25 12:16:00,72.7,70.0,30.17,NE,45,5.0,11.0,91,0.00,,,0.00,meteohub,2013-05-25 17:16:00,
2013-05-25 12:21:00,73.2,70.5,30.17,NE,45,4.0,8.0,91,0.00,,,0.00,meteohub,2013-05-25 17:21:00,
2013-05-25 12:26:00,73.6,70.7,30.17,East,90,4.0,8.0,91,0.00,,,0.00,meteohub,2013-05-25 17:26:00,
2013-05-25 12:31:00,73.9,71.1,30.17,NE,45,7.0,7.0,91,0.00,,,0.00,meteohub,2013-05-25 17:31:00,
2013-05-25 12:36:00,74.1,71.1,30.16,East,90,8.0,8.0,90,0.00,,,0.00,meteohub,2013-05-25 17:36:00,
2013-05-25 12:41:00,74.3,70.9,30.17,East,90,10.0,10.0,89,0.00,,,0.00,meteohub,2013-05-25 17:41:00,
2013-05-25 12:46:00,74.5,71.1,30.17,East,90,4.0,10.0,89,0.00,,,0.00,meteohub,2013-05-25 17:46:00,
2013-05-25 12:51:00,74.8,71.8,30.17,NE,45,8.0,10.0,90,0.00,,,0.00,meteohub,2013-05-25 17:51:00,
2013-05-25 12:56:00,75.0,71.6,30.17,East,90,8.0,10.0,89,0.00,,,0.00,meteohub,2013-05-25 17:56:00,
2013-05-25 13:01:00,75.2,71.4,30.17,East,90,5.0,11.0,88,0.00,,,0.00,meteohub,2013-05-25 18:01:00,
2013-05-25 13:06:00,75.6,71.8,30.17,East,90,8.0,11.0,88,0.00,,,0.00,meteohub,2013-05-25 18:06:00,
2013-05-25 13:11:00,75.7,71.6,30.17,North,0,15.0,15.0,87,0.00,,,0.00,meteohub,2013-05-25 18:11:00,
2013-05-25 13:16:00,76.3,71.8,30.16,NNW,338,8.0,15.0,86,0.00,,,0.00,meteohub,2013-05-25 18:16:00,
2013-05-25 13:22:00,76.6,71.8,30.16,NE,45,7.0,15.0,85,0.00,,,0.00,meteohub,2013-05-25 18:22:00,
2013-05-25 13:27:00,75.9,70.7,30.17,NE,45,7.0,15.0,84,0.00,,,0.00,meteohub,2013-05-25 18:27:00,
2013-05-25 13:32:00,75.9,70.3,30.16,NE,45,8.0,16.0,83,0.00,,,0.00,meteohub,2013-05-25 18:32:00,
2013-05-25 13:37:00,76.3,70.3,30.17,NE,45,16.0,16.0,82,0.00,,,0.00,meteohub,2013-05-25 18:37:00,
2013-05-25 13:42:00,76.5,71.2,30.16,ENE,68,8.0,17.0,84,0.00,,,0.00,meteohub,2013-05-25 18:42:00,
2013-05-25 13:47:00,76.8,70.2,30.16,NE,45,11.0,17.0,80,0.00,,,0.00,meteohub,2013-05-25 18:47:00,
2013-05-25 13:52:00,76.5,70.9,30.16,NE,45,6.0,17.0,83,0.00,,,0.00,meteohub,2013-05-25 18:52:00,
2013-05-25 13:57:00,76.3,70.7,30.16,North,0,6.0,15.0,83,0.00,,,0.00,meteohub,2013-05-25 18:57:00,
2013-05-25 14:02:00,76.3,71.1,30.15,NE,45,4.0,15.0,84,0.00,,,0.00,meteohub,2013-05-25 19:02:00,
2013-05-25 14:07:00,76.3,70.3,30.15,East,90,9.0,12.0,82,0.00,,,0.00,meteohub,2013-05-25 19:07:00,
2013-05-25 14:12:00,75.9,70.0,30.14,NE,45,5.0,11.0,82,0.00,,,0.00,meteohub,2013-05-25 19:12:00,
2013-05-25 14:17:00,76.3,70.0,30.15,East,90,7.0,10.0,81,0.00,,,0.00,meteohub,2013-05-25 19:17:00,
2013-05-25 14:22:00,76.5,70.2,30.14,ENE,68,7.0,10.0,81,0.00,,,0.00,meteohub,2013-05-25 19:22:00,
2013-05-25 14:27:00,77.0,69.6,30.14,NE,45,9.0,12.0,78,0.00,,,0.00,meteohub,2013-05-25 19:27:00,
2013-05-25 14:32:00,77.5,69.8,30.14,East,90,11.0,12.0,77,0.00,,,0.00,meteohub,2013-05-25 19:32:00,
2013-05-25 14:37:00,78.4,70.7,30.14,North,0,9.0,13.0,77,0.00,,,0.00,meteohub,2013-05-25 19:37:00,
2013-05-25 14:42:00,78.6,70.0,30.13,East,90,10.0,13.0,75,0.00,,,0.00,meteohub,2013-05-25 19:42:00,
2013-05-25 14:47:00,78.3,69.6,30.14,NE,45,8.0,13.0,75,0.00,,,0.00,meteohub,2013-05-25 19:47:00,
2013-05-25 14:52:00,77.9,68.9,30.13,NE,45,9.0,12.0,74,0.00,,,0.00,meteohub,2013-05-25 19:52:00,
2013-05-25 14:57:00,78.1,69.1,30.13,North,0,6.0,15.0,74,0.00,,,0.00,meteohub,2013-05-25 19:57:00,
2013-05-25 15:02:00,78.1,68.7,30.13,NNE,23,8.0,15.0,73,0.00,,,0.00,meteohub,2013-05-25 20:02:00,
2013-05-25 15:07:00,78.4,69.1,30.12,NE,45,8.0,15.0,73,0.00,,,0.00,meteohub,2013-05-25 20:07:00,
2013-05-25 15:13:00,78.6,69.6,30.12,East,90,5.0,11.0,74,0.00,,,0.00,meteohub,2013-05-25 20:13:00,
2013-05-25 15:18:00,79.2,69.3,30.12,NE,45,8.0,11.0,72,0.00,,,0.00,meteohub,2013-05-25 20:18:00,
2013-05-25 15:23:00,79.7,70.3,30.11,ENE,68,8.0,10.0,73,0.00,,,0.00,meteohub,2013-05-25 20:23:00,
2013-05-25 15:28:00,80.2,69.6,30.11,East,90,13.0,13.0,70,0.00,,,0.00,meteohub,2013-05-25 20:28:00,
2013-05-25 15:33:00,79.7,69.4,30.10,NE,45,8.0,14.0,71,0.00,,,0.00,meteohub,2013-05-25 20:33:00,
2013-05-25 15:38:00,80.1,70.2,30.11,East,90,11.0,14.0,72,0.00,,,0.00,meteohub,2013-05-25 20:38:00,
2013-05-25 15:43:00,80.4,70.5,30.11,NE,45,5.0,14.0,72,0.00,,,0.00,meteohub,2013-05-25 20:43:00,
2013-05-25 15:48:00,81.1,70.9,30.10,NE,45,4.0,11.0,71,0.00,,,0.00,meteohub,2013-05-25 20:48:00,
2013-05-25 15:53:00,81.3,68.9,30.10,NE,45,9.0,11.0,66,0.00,,,0.00,meteohub,2013-05-25 20:53:00,
2013-05-25 15:58:00,82.0,70.0,30.10,NE,45,6.0,10.0,67,0.00,,,0.00,meteohub,2013-05-25 20:58:00,
2013-05-25 16:03:00,82.9,70.9,30.09,SE,135,11.0,11.0,67,0.00,,,0.00,meteohub,2013-05-25 21:03:00,
2013-05-25 16:08:00,83.7,71.6,30.09,ENE,68,8.0,12.0,67,0.00,,,0.00,meteohub,2013-05-25 21:08:00,
2013-05-25 16:13:00,84.4,70.9,30.09,NE,45,4.0,12.0,64,0.00,,,0.00,meteohub,2013-05-25 21:13:00,
2013-05-25 16:18:00,84.9,70.9,30.09,NW,315,5.0,12.0,63,0.00,,,0.00,meteohub,2013-05-25 21:18:00,
2013-05-25 16:23:00,84.0,71.4,30.09,NW,315,4.0,10.0,66,0.00,,,0.00,meteohub,2013-05-25 21:23:00,
2013-05-25 16:29:00,84.6,70.5,30.09,East,90,4.0,9.0,63,0.00,,,0.00,meteohub,2013-05-25 21:29:00,
2013-05-25 16:34:00,85.1,71.1,30.09,East,90,7.0,8.0,63,0.00,,,0.00,meteohub,2013-05-25 21:34:00,
2013-05-25 16:39:00,84.6,70.2,30.09,East,90,5.0,10.0,62,0.00,,,0.00,meteohub,2013-05-25 21:39:00,
2013-05-25 16:44:00,84.4,70.9,30.08,NE,45,7.0,10.0,64,0.00,,,0.00,meteohub,2013-05-25 21:44:00,
2013-05-25 16:49:00,84.7,70.7,30.08,NE,45,4.0,10.0,63,0.00,,,0.00,meteohub,2013-05-25 21:49:00,
2013-05-25 16:54:00,86.2,71.6,30.08,NE,45,8.0,8.0,62,0.00,,,0.00,meteohub,2013-05-25 21:54:00,
2013-05-25 16:59:00,86.2,70.2,30.08,NE,45,8.0,8.0,59,0.00,,,0.00,meteohub,2013-05-25 21:59:00,
2013-05-25 17:04:00,85.1,71.1,30.08,NE,45,6.0,9.0,63,0.00,,,0.00,meteohub,2013-05-25 22:04:00,
2013-05-25 17:09:00,83.5,70.9,30.08,East,90,7.0,9.0,66,0.00,,,0.00,meteohub,2013-05-25 22:09:00,
2013-05-25 17:14:00,83.1,71.1,30.08,NE,45,4.0,9.0,67,0.00,,,0.00,meteohub,2013-05-25 22:14:00,
2013-05-25 17:19:00,82.8,69.8,30.08,NE,45,8.0,11.0,65,0.00,,,0.00,meteohub,2013-05-25 22:19:00,
2013-05-25 17:24:00,81.7,70.2,30.08,NNE,23,8.0,12.0,68,0.00,,,0.00,meteohub,2013-05-25 22:24:00,
2013-05-25 17:29:00,80.6,70.0,30.08,NE,45,4.0,12.0,70,0.00,,,0.00,meteohub,2013-05-25 22:29:00,
2013-05-25 17:34:00,79.9,69.6,30.09,NE,45,5.0,12.0,71,0.00,,,0.00,meteohub,2013-05-25 22:34:00,
2013-05-25 17:39:00,79.7,69.4,30.08,NE,45,8.0,10.0,71,0.00,,,0.00,meteohub,2013-05-25 22:39:00,
2013-05-25 17:44:00,79.7,68.5,30.08,NE,45,4.0,10.0,69,0.00,,,0.00,meteohub,2013-05-25 22:44:00,
2013-05-25 17:49:00,79.7,68.2,30.09,NE,45,5.0,8.0,68,0.00,,,0.00,meteohub,2013-05-25 22:49:00,
2013-05-25 17:55:00,79.3,68.4,30.09,NE,45,7.0,8.0,69,0.00,,,0.00,meteohub,2013-05-25 22:55:00,
2013-05-25 18:00:00,79.7,68.2,30.08,East,90,6.0,8.0,68,0.00,,,0.00,meteohub,2013-05-25 23:00:00,
2013-05-25 18:05:00,79.9,68.7,30.08,NE,45,6.0,8.0,69,0.00,,,0.00,meteohub,2013-05-25 23:05:00,
2013-05-25 18:10:00,80.6,67.3,30.09,East,90,7.0,8.0,64,0.00,,,0.00,meteohub,2013-05-25 23:10:00,
2013-05-25 18:15:00,80.6,66.9,30.08,East,90,4.0,10.0,63,0.00,,,0.00,meteohub,2013-05-25 23:15:00,
2013-05-25 18:20:00,79.7,66.9,30.08,ENE,68,8.0,11.0,65,0.00,,,0.00,meteohub,2013-05-25 23:20:00,
2013-05-25 18:25:00,79.7,67.3,30.08,East,90,5.0,11.0,66,0.00,,,0.00,meteohub,2013-05-25 23:25:00,
2013-05-25 18:30:00,79.5,67.1,30.08,NNW,338,5.0,11.0,66,0.00,,,0.00,meteohub,2013-05-25 23:30:00,
2013-05-25 18:35:00,79.2,67.6,30.08,NE,45,5.0,10.0,68,0.00,,,0.00,meteohub,2013-05-25 23:35:00,
2013-05-25 18:40:00,79.7,68.2,30.08,East,90,8.0,10.0,68,0.00,,,0.00,meteohub,2013-05-25 23:40:00,
2013-05-25 18:45:00,79.7,68.2,30.07,NNE,23,6.0,10.0,68,0.00,,,0.00,meteohub,2013-05-25 23:45:00,
2013-05-25 18:50:00,79.3,68.7,30.08,North,0,8.0,8.0,70,0.00,,,0.00,meteohub,2013-05-25 23:50:00,
2013-05-25 18:55:00,79.3,69.4,30.07,ENE,68,5.0,12.0,72,0.00,,,0.00,meteohub,2013-05-25 23:55:00,
2013-05-25 19:00:00,79.3,69.4,30.07,East,90,4.0,12.0,72,0.00,,,0.00,meteohub,2013-05-26 00:00:00,
2013-05-25 19:05:00,79.3,70.0,30.07,East,90,5.0,12.0,73,0.00,,,0.00,meteohub,2013-05-26 00:05:00,
2013-05-25 19:10:00,79.7,70.3,30.07,East,90,5.0,9.0,73,0.00,,,0.00,meteohub,2013-05-26 00:10:00,
2013-05-25 19:15:00,79.9,70.5,30.07,NE,45,4.0,9.0,73,0.00,,,0.00,meteohub,2013-05-26 00:15:00,
2013-05-25 19:20:00,79.0,70.0,30.07,NE,45,2.0,8.0,74,0.00,,,0.00,meteohub,2013-05-26 00:20:00,
2013-05-25 19:26:00,78.6,70.3,30.06,East,90,5.0,8.0,76,0.00,,,0.00,meteohub,2013-05-26 00:26:00,
2013-05-25 19:31:00,78.4,70.2,30.06,NE,45,4.0,8.0,76,0.00,,,0.00,meteohub,2013-05-26 00:31:00,
2013-05-25 19:36:00,78.3,70.5,30.06,East,90,3.0,5.0,77,0.00,,,0.00,meteohub,2013-05-26 00:36:00,
2013-05-25 19:41:00,78.1,70.7,30.06,East,90,2.0,5.0,78,0.00,,,0.00,meteohub,2013-05-26 00:41:00,
2013-05-25 19:46:00,77.9,70.2,30.06,East,90,4.0,5.0,77,0.00,,,0.00,meteohub,2013-05-26 00:46:00,
2013-05-25 19:51:00,77.7,69.1,30.06,North,0,4.0,5.0,75,0.00,,,0.00,meteohub,2013-05-26 00:51:00,
2013-05-25 19:56:00,77.4,68.9,30.07,NE,45,6.0,6.0,75,0.00,,,0.00,meteohub,2013-05-26 00:56:00,
2013-05-25 20:01:00,77.0,68.0,30.07,NNE,23,7.0,7.0,74,0.00,,,0.00,meteohub,2013-05-26 01:01:00,
2013-05-25 20:06:00,76.5,68.0,30.07,NE,45,4.0,7.0,75,0.00,,,0.00,meteohub,2013-05-26 01:06:00,
2013-05-25 20:11:00,76.1,67.6,30.07,NE,45,5.0,8.0,75,0.00,,,0.00,meteohub,2013-05-26 01:11:00,
2013-05-25 20:16:00,76.1,68.4,30.07,North,0,5.0,8.0,77,0.00,,,0.00,meteohub,2013-05-26 01:16:00,
2013-05-25 20:21:00,75.7,67.6,30.07,East,90,4.0,8.0,76,0.00,,,0.00,meteohub,2013-05-26 01:21:00,
2013-05-25 20:26:00,75.4,67.6,30.07,NE,45,6.0,7.0,77,0.00,,,0.00,meteohub,2013-05-26 01:26:00,
2013-05-25 20:31:00,75.2,67.5,30.07,NE,45,2.0,7.0,77,0.00,,,0.00,meteohub,2013-05-26 01:31:00,
2013-05-25 20:36:00,74.8,67.8,30.07,NNE,23,4.0,6.0,79,0.00,,,0.00,meteohub,2013-05-26 01:36:00,
2013-05-25 20:41:00,74.5,67.8,30.07,NE,45,3.0,6.0,80,0.00,,,0.00,meteohub,2013-05-26 01:41:00,
2013-05-25 20:46:00,74.3,68.0,30.07,ENE,68,3.0,5.0,81,0.00,,,0.00,meteohub,2013-05-26 01:46:00,
2013-05-25 20:51:00,74.1,68.2,30.07,East,90,2.0,5.0,82,0.00,,,0.00,meteohub,2013-05-26 01:51:00,
2013-05-25 20:56:00,73.9,68.4,30.08,NE,45,2.0,4.0,83,0.00,,,0.00,meteohub,2013-05-26 01:56:00,
2013-05-25 21:01:00,73.8,68.5,30.07,NE,45,2.0,4.0,84,0.00,,,0.00,meteohub,2013-05-26 02:01:00,
2013-05-25 21:07:00,73.6,68.7,30.08,NE,45,2.0,4.0,85,0.00,,,0.00,meteohub,2013-05-26 02:07:00,
2013-05-25 21:12:00,73.4,68.5,30.08,East,90,2.0,4.0,85,0.00,,,0.00,meteohub,2013-05-26 02:12:00,
2013-05-25 21:17:00,73.6,69.1,30.08,NE,45,2.0,4.0,86,0.00,,,0.00,meteohub,2013-05-26 02:17:00,
2013-05-25 21:22:00,73.8,69.3,30.08,NE,45,3.0,5.0,86,0.00,,,0.00,meteohub,2013-05-26 02:22:00,
2013-05-25 21:27:00,73.8,69.3,30.08,NE,45,4.0,5.0,86,0.00,,,0.00,meteohub,2013-05-26 02:27:00,
2013-05-25 21:32:00,73.6,69.4,30.08,NE,45,3.0,5.0,87,0.00,,,0.00,meteohub,2013-05-26 02:32:00,
2013-05-25 21:37:00,73.6,69.4,30.08,East,90,7.0,7.0,87,0.00,,,0.00,meteohub,2013-05-26 02:37:00,
2013-05-25 21:42:00,73.6,69.4,30.08,East,90,4.0,7.0,87,0.00,,,0.00,meteohub,2013-05-26 02:42:00,
2013-05-25 21:47:00,73.6,69.8,30.08,East,90,4.0,7.0,88,0.00,,,0.00,meteohub,2013-05-26 02:47:00,
2013-05-25 21:52:00,73.6,69.8,30.09,East,90,3.0,7.0,88,0.00,,,0.00,meteohub,2013-05-26 02:52:00,
2013-05-25 21:57:00,73.6,70.2,30.09,East,90,2.0,7.0,89,0.00,,,0.00,meteohub,2013-05-26 02:57:00,
2013-05-25 22:02:00,73.6,70.2,30.09,East,90,3.0,4.0,89,0.00,,,0.00,meteohub,2013-05-26 03:02:00,
2013-05-25 22:08:00,73.8,70.3,30.09,SE,135,2.0,4.0,89,0.00,,,0.00,meteohub,2013-05-26 03:08:00,
2013-05-25 22:13:00,73.8,70.3,30.10,East,90,3.0,4.0,89,0.00,,,0.00,meteohub,2013-05-26 03:13:00,
2013-05-25 22:18:00,73.8,70.3,30.11,NNE,23,1.0,4.0,89,0.00,,,0.00,meteohub,2013-05-26 03:18:00,
2013-05-25 22:23:00,73.8,70.3,30.11,NE,45,2.0,3.0,89,0.00,,,0.00,meteohub,2013-05-26 03:23:00,
2013-05-25 22:28:00,73.8,70.3,30.11,NE,45,1.0,3.0,89,0.00,,,0.00,meteohub,2013-05-26 03:28:00,
2013-05-25 22:33:00,73.8,70.7,30.11,North,0,2.0,3.0,90,0.00,,,0.00,meteohub,2013-05-26 03:33:00,
2013-05-25 22:38:00,73.8,70.7,30.11,NE,45,2.0,3.0,90,0.00,,,0.00,meteohub,2013-05-26 03:38:00,
2013-05-25 22:43:00,73.8,70.9,30.12,NE,45,2.0,3.0,91,0.00,,,0.00,meteohub,2013-05-26 03:43:00,
2013-05-25 22:48:00,73.8,70.9,30.12,NE,45,2.0,4.0,91,0.00,,,0.00,meteohub,2013-05-26 03:48:00,
2013-05-25 22:53:00,73.9,71.1,30.12,East,90,2.0,4.0,91,0.00,,,0.00,meteohub,2013-05-26 03:53:00,
2013-05-25 22:58:00,73.9,71.1,30.12,NE,45,2.0,4.0,91,0.00,,,0.00,meteohub,2013-05-26 03:58:00,
2013-05-25 23:01:00,73.9,71.1,30.12,East,90,2.0,4.0,91,0.00,,,0.00,meteohub,2013-05-26 04:01:00,
2013-05-25 23:02:00,73.9,71.1,30.12,NE,45,2.0,4.0,91,0.00,,,0.00,meteohub,2013-05-26 04:02:00,
2013-05-25 23:03:00,73.9,71.1,30.12,East,90,2.0,4.0,91,0.00,,,0.00,meteohub,2013-05-26 04:03:00,
2013-05-25 23:08:00,73.8,70.9,30.11,SE,135,2.0,4.0,91,0.00,,,0.00,meteohub,2013-05-26 04:08:00,
2013-05-25 23:13:00,73.6,70.7,30.11,NE,45,2.0,4.0,91,0.00,,,0.00,meteohub,2013-05-26 04:13:00,
2013-05-25 23:18:00,73.6,71.1,30.11,NE,45,3.0,4.0,92,0.00,,,0.00,meteohub,2013-05-26 04:18:00,
2013-05-25 23:23:00,73.4,70.9,30.12,ENE,68,4.0,4.0,92,0.00,,,0.00,meteohub,2013-05-26 04:23:00,
2013-05-25 23:28:00,73.6,71.1,30.12,East,90,8.0,8.0,92,0.00,,,0.00,meteohub,2013-05-26 04:28:00,
2013-05-25 23:33:00,73.6,71.1,30.12,NE,45,4.0,8.0,92,0.00,,,0.00,meteohub,2013-05-26 04:33:00,
2013-05-25 23:38:00,73.6,71.1,30.12,East,90,5.0,8.0,92,0.00,,,0.00,meteohub,2013-05-26 04:38:00,
2013-05-25 23:43:00,73.6,70.7,30.12,NE,45,5.0,8.0,91,0.00,,,0.00,meteohub,2013-05-26 04:43:00,
2013-05-25 23:48:00,73.6,70.7,30.12,East,90,5.0,6.0,91,0.00,,,0.00,meteohub,2013-05-26 04:48:00,
2013-05-25 23:54:00,73.8,70.9,30.13,NNE,23,4.0,5.0,91,0.00,,,0.00,meteohub,2013-05-26 04:54:00,
2013-05-25 23:59:00,73.8,70.9,30.13,East,90,5.0,5.0,91,0.00,,,0.00,meteohub,2013-05-26 04:59:00,